sensor_id;sensor_type;location;lat;lon;timestamp;P1;P2;P0
76101;PMS7003;64830;46.910;6.354;2023-05-17T00:02:09;8.00;5.00;3.00
76101;PMS7003;64830;46.910;6.354;2023-05-17T00:04:35;5.25;5.25;5.00
76101;PMS7003;64830;46.910;6.354;2023-05-17T00:07:00;5.50;5.25;5.00
76101;PMS7003;64830;46.910;6.354;2023-05-17T00:09:25;2.00;2.00;1.25
76101;PMS7003;64830;46.910;6.354;2023-05-17T00:11:51;8.00;7.00;6.00
76101;PMS7003;64830;46.910;6.354;2023-05-17T00:14:16;6.00;5.00;4.25
76101;PMS7003;64830;46.910;6.354;2023-05-17T00:16:42;7.00;5.00;3.00
76101;PMS7003;64830;46.910;6.354;2023-05-17T00:19:07;7.75;4.50;3.00
76101;PMS7003;64830;46.910;6.354;2023-05-17T00:21:36;5.00;5.00;5.00
76101;PMS7003;64830;46.910;6.354;2023-05-17T00:24:02;3.00;2.00;1.00
76101;PMS7003;64830;46.910;6.354;2023-05-17T00:26:27;5.75;5.75;5.00
76101;PMS7003;64830;46.910;6.354;2023-05-17T00:28:53;6.50;5.25;5.00
76101;PMS7003;64830;46.910;6.354;2023-05-17T00:31:18;8.25;6.00;5.00
76101;PMS7003;64830;46.910;6.354;2023-05-17T00:33:43;8.00;4.50;3.00
76101;PMS7003;64830;46.910;6.354;2023-05-17T00:36:10;5.00;5.00;4.00
76101;PMS7003;64830;46.910;6.354;2023-05-17T00:38:35;7.25;6.00;5.00
76101;PMS7003;64830;46.910;6.354;2023-05-17T00:41:01;5.25;5.25;3.75
76101;PMS7003;64830;46.910;6.354;2023-05-17T00:43:26;7.25;5.75;4.25
76101;PMS7003;64830;46.910;6.354;2023-05-17T00:45:52;6.00;5.00;4.50
76101;PMS7003;64830;46.910;6.354;2023-05-17T00:48:17;3.25;3.25;3.00
76101;PMS7003;64830;46.910;6.354;2023-05-17T00:50:49;5.75;5.75;4.50
76101;PMS7003;64830;46.910;6.354;2023-05-17T00:53:15;3.50;3.50;2.75
76101;PMS7003;64830;46.910;6.354;2023-05-17T00:55:42;6.50;6.00;3.50
76101;PMS7003;64830;46.910;6.354;2023-05-17T00:58:08;6.75;5.75;5.25
76101;PMS7003;64830;46.910;6.354;2023-05-17T01:00:38;5.00;5.00;3.00
76101;PMS7003;64830;46.910;6.354;2023-05-17T01:03:03;3.25;3.25;3.00
76101;PMS7003;64830;46.910;6.354;2023-05-17T01:05:29;5.00;5.00;3.00
76101;PMS7003;64830;46.910;6.354;2023-05-17T01:07:55;3.50;3.50;2.25
76101;PMS7003;64830;46.910;6.354;2023-05-17T01:10:21;6.25;6.00;5.75
76101;PMS7003;64830;46.910;6.354;2023-05-17T01:13:01;7.00;5.00;3.00
76101;PMS7003;64830;46.910;6.354;2023-05-17T01:15:35;5.50;4.75;3.50
76101;PMS7003;64830;46.910;6.354;2023-05-17T01:18:11;6.00;5.00;3.00
76101;PMS7003;64830;46.910;6.354;2023-05-17T01:20:41;5.00;4.00;3.00
76101;PMS7003;64830;46.910;6.354;2023-05-17T01:28:46;5.00;5.00;3.00
76101;PMS7003;64830;46.910;6.354;2023-05-17T01:31:17;5.00;5.00;2.75
76101;PMS7003;64830;46.910;6.354;2023-05-17T01:33:43;5.75;5.75;4.00
76101;PMS7003;64830;46.910;6.354;2023-05-17T01:36:09;5.00;5.00;4.00
76101;PMS7003;64830;46.910;6.354;2023-05-17T01:38:34;3.50;3.50;3.00
76101;PMS7003;64830;46.910;6.354;2023-05-17T01:44:01;4.50;4.50;3.00
76101;PMS7003;64830;46.910;6.354;2023-05-17T01:46:43;5.25;5.00;2.50
76101;PMS7003;64830;46.910;6.354;2023-05-17T01:51:47;3.50;3.50;3.00
76101;PMS7003;64830;46.910;6.354;2023-05-17T01:54:19;4.00;4.00;3.00
76101;PMS7003;64830;46.910;6.354;2023-05-17T01:56:50;6.00;5.00;3.00
76101;PMS7003;64830;46.910;6.354;2023-05-17T01:59:22;4.50;4.50;3.00
76101;PMS7003;64830;46.910;6.354;2023-05-17T02:01:51;5.00;5.00;3.00
76101;PMS7003;64830;46.910;6.354;2023-05-17T02:04:19;6.00;6.00;5.00
76101;PMS7003;64830;46.910;6.354;2023-05-17T02:06:45;7.25;4.00;3.00
76101;PMS7003;64830;46.910;6.354;2023-05-17T02:09:10;7.00;5.75;4.50
76101;PMS7003;64830;46.910;6.354;2023-05-17T02:11:36;8.00;5.25;4.00
76101;PMS7003;64830;46.910;6.354;2023-05-17T02:14:01;8.25;6.00;5.00
76101;PMS7003;64830;46.910;6.354;2023-05-17T02:16:26;5.50;5.50;4.00
76101;PMS7003;64830;46.910;6.354;2023-05-17T02:18:52;5.00;3.00;2.00
76101;PMS7003;64830;46.910;6.354;2023-05-17T02:21:17;4.00;4.00;3.50
76101;PMS7003;64830;46.910;6.354;2023-05-17T02:23:43;8.25;6.00;5.00
76101;PMS7003;64830;46.910;6.354;2023-05-17T02:26:08;6.00;6.00;5.00
76101;PMS7003;64830;46.910;6.354;2023-05-17T02:28:34;7.50;6.50;5.25
76101;PMS7003;64830;46.910;6.354;2023-05-17T02:30:59;7.25;7.25;6.00
76101;PMS7003;64830;46.910;6.354;2023-05-17T02:33:24;4.50;4.50;4.00
76101;PMS7003;64830;46.910;6.354;2023-05-17T02:35:50;9.00;8.00;6.00
76101;PMS7003;64830;46.910;6.354;2023-05-17T02:38:15;9.00;7.50;5.25
76101;PMS7003;64830;46.910;6.354;2023-05-17T02:40:41;10.50;10.50;7.50
76101;PMS7003;64830;46.910;6.354;2023-05-17T02:43:06;7.75;6.50;5.75
76101;PMS7003;64830;46.910;6.354;2023-05-17T02:45:32;7.75;6.00;5.00
76101;PMS7003;64830;46.910;6.354;2023-05-17T02:47:57;2.00;2.00;2.00
76101;PMS7003;64830;46.910;6.354;2023-05-17T02:50:23;7.00;5.75;5.75
76101;PMS7003;64830;46.910;6.354;2023-05-17T02:52:48;5.00;5.00;4.50
76101;PMS7003;64830;46.910;6.354;2023-05-17T02:55:14;9.75;8.50;6.25
76101;PMS7003;64830;46.910;6.354;2023-05-17T02:57:39;7.00;7.00;6.00
76101;PMS7003;64830;46.910;6.354;2023-05-17T03:00:04;9.00;6.75;6.00
76101;PMS7003;64830;46.910;6.354;2023-05-17T03:02:30;10.00;7.00;6.00
76101;PMS7003;64830;46.910;6.354;2023-05-17T03:04:56;7.00;6.25;5.75
76101;PMS7003;64830;46.910;6.354;2023-05-17T03:07:21;7.00;6.00;6.00
76101;PMS7003;64830;46.910;6.354;2023-05-17T03:09:47;9.00;8.50;6.25
76101;PMS7003;64830;46.910;6.354;2023-05-17T03:12:12;10.00;7.00;5.75
76101;PMS7003;64830;46.910;6.354;2023-05-17T03:14:37;6.50;6.25;5.25
76101;PMS7003;64830;46.910;6.354;2023-05-17T03:17:03;10.00;10.00;7.00
76101;PMS7003;64830;46.910;6.354;2023-05-17T03:19:28;7.00;7.00;5.75
76101;PMS7003;64830;46.910;6.354;2023-05-17T03:21:54;8.50;8.50;6.75
76101;PMS7003;64830;46.910;6.354;2023-05-17T03:24:22;9.25;6.25;5.25
76101;PMS7003;64830;46.910;6.354;2023-05-17T03:26:48;10.75;10.00;7.00
76101;PMS7003;64830;46.910;6.354;2023-05-17T03:29:13;10.00;8.50;6.00
76101;PMS7003;64830;46.910;6.354;2023-05-17T03:31:38;11.00;10.00;6.75
76101;PMS7003;64830;46.910;6.354;2023-05-17T03:34:04;8.25;6.50;6.00
76101;PMS7003;64830;46.910;6.354;2023-05-17T03:36:29;10.00;8.75;7.00
76101;PMS7003;64830;46.910;6.354;2023-05-17T03:38:55;9.75;8.00;6.00
76101;PMS7003;64830;46.910;6.354;2023-05-17T03:41:21;9.50;7.00;6.00
76101;PMS7003;64830;46.910;6.354;2023-05-17T03:43:46;12.25;9.50;7.00
76101;PMS7003;64830;46.910;6.354;2023-05-17T03:46:12;11.25;9.50;6.75
76101;PMS7003;64830;46.910;6.354;2023-05-17T03:48:38;7.75;7.75;6.25
76101;PMS7003;64830;46.910;6.354;2023-05-17T03:51:03;10.25;9.50;7.00
76101;PMS7003;64830;46.910;6.354;2023-05-17T03:53:29;10.00;10.00;7.00
76101;PMS7003;64830;46.910;6.354;2023-05-17T03:55:55;8.75;7.00;6.00
76101;PMS7003;64830;46.910;6.354;2023-05-17T03:58:20;7.00;7.00;6.25
76101;PMS7003;64830;46.910;6.354;2023-05-17T04:00:45;10.25;7.25;5.00
76101;PMS7003;64830;46.910;6.354;2023-05-17T04:03:11;7.00;7.00;6.00
76101;PMS7003;64830;46.910;6.354;2023-05-17T04:05:38;6.50;6.50;5.00
76101;PMS7003;64830;46.910;6.354;2023-05-17T04:08:06;7.00;7.00;6.00
76101;PMS7003;64830;46.910;6.354;2023-05-17T04:10:31;5.75;5.75;5.00
76101;PMS7003;64830;46.910;6.354;2023-05-17T04:12:57;6.00;6.00;5.00
76101;PMS7003;64830;46.910;6.354;2023-05-17T04:15:22;6.25;6.00;6.00
76101;PMS7003;64830;46.910;6.354;2023-05-17T04:17:48;7.00;7.00;4.50
76101;PMS7003;64830;46.910;6.354;2023-05-17T04:20:13;9.50;6.25;5.75
76101;PMS7003;64830;46.910;6.354;2023-05-17T04:22:38;10.00;9.25;6.50
76101;PMS7003;64830;46.910;6.354;2023-05-17T04:25:04;6.75;6.50;5.25
76101;PMS7003;64830;46.910;6.354;2023-05-17T04:27:30;6.25;5.75;5.00
76101;PMS7003;64830;46.910;6.354;2023-05-17T04:29:55;9.00;8.00;5.75
76101;PMS7003;64830;46.910;6.354;2023-05-17T04:32:21;10.50;6.00;5.00
76101;PMS7003;64830;46.910;6.354;2023-05-17T04:34:46;7.25;7.25;5.00
76101;PMS7003;64830;46.910;6.354;2023-05-17T04:37:12;6.25;5.50;4.50
76101;PMS7003;64830;46.910;6.354;2023-05-17T04:39:37;8.75;7.50;6.00
76101;PMS7003;64830;46.910;6.354;2023-05-17T04:42:03;10.00;6.00;5.00
76101;PMS7003;64830;46.910;6.354;2023-05-17T04:44:28;9.75;7.00;5.50
76101;PMS7003;64830;46.910;6.354;2023-05-17T04:46:53;6.25;6.00;5.25
76101;PMS7003;64830;46.910;6.354;2023-05-17T04:49:19;9.25;6.75;5.00
76101;PMS7003;64830;46.910;6.354;2023-05-17T04:51:44;7.00;7.00;5.25
76101;PMS7003;64830;46.910;6.354;2023-05-17T04:54:10;9.00;8.00;6.00
76101;PMS7003;64830;46.910;6.354;2023-05-17T04:56:35;8.75;6.75;5.50
76101;PMS7003;64830;46.910;6.354;2023-05-17T04:59:01;6.25;6.25;5.50
76101;PMS7003;64830;46.910;6.354;2023-05-17T05:01:27;7.25;5.25;3.00
76101;PMS7003;64830;46.910;6.354;2023-05-17T05:03:55;6.50;6.50;5.50
76101;PMS7003;64830;46.910;6.354;2023-05-17T05:06:20;6.25;6.25;6.00
76101;PMS7003;64830;46.910;6.354;2023-05-17T05:08:46;7.25;6.00;5.00
76101;PMS7003;64830;46.910;6.354;2023-05-17T05:11:11;6.75;5.75;4.50
76101;PMS7003;64830;46.910;6.354;2023-05-17T05:13:37;5.50;5.50;3.00
76101;PMS7003;64830;46.910;6.354;2023-05-17T05:16:03;6.00;6.00;5.00
76101;PMS7003;64830;46.910;6.354;2023-05-17T05:18:30;6.50;3.50;3.00
76101;PMS7003;64830;46.910;6.354;2023-05-17T05:20:55;3.00;3.00;3.00
76101;PMS7003;64830;46.910;6.354;2023-05-17T05:23:20;6.00;6.00;5.50
76101;PMS7003;64830;46.910;6.354;2023-05-17T05:25:46;6.75;6.00;5.00
76101;PMS7003;64830;46.910;6.354;2023-05-17T05:28:11;11.00;11.00;9.75
76101;PMS7003;64830;46.910;6.354;2023-05-17T05:30:36;6.50;6.00;5.00
76101;PMS7003;64830;46.910;6.354;2023-05-17T05:33:02;6.50;6.50;6.00
76101;PMS7003;64830;46.910;6.354;2023-05-17T05:35:27;9.75;7.50;5.00
76101;PMS7003;64830;46.910;6.354;2023-05-17T05:37:54;7.50;7.50;5.00
76101;PMS7003;64830;46.910;6.354;2023-05-17T05:40:21;7.50;7.50;6.00
76101;PMS7003;64830;46.910;6.354;2023-05-17T05:42:46;4.50;4.50;3.00
76101;PMS7003;64830;46.910;6.354;2023-05-17T05:45:11;6.00;6.00;5.00
76101;PMS7003;64830;46.910;6.354;2023-05-17T05:47:37;11.00;11.00;7.50
76101;PMS7003;64830;46.910;6.354;2023-05-17T05:50:03;9.25;6.50;5.75
76101;PMS7003;64830;46.910;6.354;2023-05-17T05:52:29;6.50;6.25;5.00
76101;PMS7003;64830;46.910;6.354;2023-05-17T05:54:55;5.75;5.75;5.75
76101;PMS7003;64830;46.910;6.354;2023-05-17T05:57:20;5.50;5.00;2.25
76101;PMS7003;64830;46.910;6.354;2023-05-17T05:59:45;7.25;6.25;5.25
76101;PMS7003;64830;46.910;6.354;2023-05-17T06:02:11;5.25;5.25;4.00
76101;PMS7003;64830;46.910;6.354;2023-05-17T06:04:36;6.75;4.50;3.50
76101;PMS7003;64830;46.910;6.354;2023-05-17T06:07:02;5.75;5.75;5.25
76101;PMS7003;64830;46.910;6.354;2023-05-17T06:09:28;7.50;7.50;5.00
76101;PMS7003;64830;46.910;6.354;2023-05-17T06:11:53;5.50;5.50;4.50
76101;PMS7003;64830;46.910;6.354;2023-05-17T06:14:18;7.00;7.00;6.00
76101;PMS7003;64830;46.910;6.354;2023-05-17T06:16:44;5.50;5.50;5.25
76101;PMS7003;64830;46.910;6.354;2023-05-17T06:19:10;6.00;5.00;5.00
76101;PMS7003;64830;46.910;6.354;2023-05-17T06:21:35;5.50;5.00;4.50
76101;PMS7003;64830;46.910;6.354;2023-05-17T06:24:00;3.00;3.00;3.00
76101;PMS7003;64830;46.910;6.354;2023-05-17T06:26:26;6.00;5.50;5.00
76101;PMS7003;64830;46.910;6.354;2023-05-17T06:28:51;4.25;4.00;3.00
76101;PMS7003;64830;46.910;6.354;2023-05-17T06:31:17;5.00;5.00;3.00
76101;PMS7003;64830;46.910;6.354;2023-05-17T06:33:42;6.25;5.00;4.75
76101;PMS7003;64830;46.910;6.354;2023-05-17T06:36:08;4.75;4.75;3.00
76101;PMS7003;64830;46.910;6.354;2023-05-17T06:38:33;8.00;5.00;3.00
76101;PMS7003;64830;46.910;6.354;2023-05-17T06:40:58;6.50;6.50;4.25
76101;PMS7003;64830;46.910;6.354;2023-05-17T06:43:24;7.00;6.25;5.50
76101;PMS7003;64830;46.910;6.354;2023-05-17T06:45:49;4.25;4.25;4.25
76101;PMS7003;64830;46.910;6.354;2023-05-17T06:48:15;3.75;3.00;2.00
76101;PMS7003;64830;46.910;6.354;2023-05-17T06:50:40;5.00;4.00;3.00
76101;PMS7003;64830;46.910;6.354;2023-05-17T06:53:06;3.50;3.50;2.75
76101;PMS7003;64830;46.910;6.354;2023-05-17T06:55:31;3.75;3.00;3.00
76101;PMS7003;64830;46.910;6.354;2023-05-17T06:57:57;2.50;2.50;2.00
76101;PMS7003;64830;46.910;6.354;2023-05-17T07:00:24;2.50;2.50;2.00
76101;PMS7003;64830;46.910;6.354;2023-05-17T07:02:49;3.00;3.00;2.00
76101;PMS7003;64830;46.910;6.354;2023-05-17T07:05:15;2.50;2.50;2.00
76101;PMS7003;64830;46.910;6.354;2023-05-17T07:07:40;3.00;3.00;2.50
76101;PMS7003;64830;46.910;6.354;2023-05-17T07:10:05;3.25;3.25;3.00
76101;PMS7003;64830;46.910;6.354;2023-05-17T07:12:31;3.50;1.00;1.00
76101;PMS7003;64830;46.910;6.354;2023-05-17T07:14:57;2.00;1.00;0.00
76101;PMS7003;64830;46.910;6.354;2023-05-17T07:17:22;2.50;2.50;2.00
76101;PMS7003;64830;46.910;6.354;2023-05-17T07:19:48;3.50;2.75;2.50
76101;PMS7003;64830;46.910;6.354;2023-05-17T07:22:15;2.50;2.50;2.00
76101;PMS7003;64830;46.910;6.354;2023-05-17T07:24:41;4.00;2.00;2.00
76101;PMS7003;64830;46.910;6.354;2023-05-17T07:27:07;2.00;2.00;1.50
76101;PMS7003;64830;46.910;6.354;2023-05-17T07:29:34;2.75;2.75;2.75
76101;PMS7003;64830;46.910;6.354;2023-05-17T07:31:59;2.00;2.00;1.25
76101;PMS7003;64830;46.910;6.354;2023-05-17T07:34:25;0.00;0.00;0.00
76101;PMS7003;64830;46.910;6.354;2023-05-17T07:36:50;2.00;2.00;2.00
76101;PMS7003;64830;46.910;6.354;2023-05-17T07:39:16;2.00;2.00;1.25
76101;PMS7003;64830;46.910;6.354;2023-05-17T07:41:41;2.00;2.00;2.00
76101;PMS7003;64830;46.910;6.354;2023-05-17T07:44:06;3.00;3.00;3.00
76101;PMS7003;64830;46.910;6.354;2023-05-17T07:46:32;1.50;1.50;1.00
76101;PMS7003;64830;46.910;6.354;2023-05-17T07:48:57;0.75;0.75;0.75
76101;PMS7003;64830;46.910;6.354;2023-05-17T07:51:23;1.25;1.25;1.25
76101;PMS7003;64830;46.910;6.354;2023-05-17T07:53:48;2.50;2.50;2.00
76101;PMS7003;64830;46.910;6.354;2023-05-17T07:56:13;0.00;0.00;0.00
76101;PMS7003;64830;46.910;6.354;2023-05-17T07:58:39;1.00;1.00;1.00
76101;PMS7003;64830;46.910;6.354;2023-05-17T08:01:04;2.00;2.00;2.00
76101;PMS7003;64830;46.910;6.354;2023-05-17T08:03:30;2.00;2.00;2.00
76101;PMS7003;64830;46.910;6.354;2023-05-17T08:05:55;2.50;2.50;2.00
76101;PMS7003;64830;46.910;6.354;2023-05-17T08:08:21;1.00;1.00;0.75
76101;PMS7003;64830;46.910;6.354;2023-05-17T08:10:46;2.25;2.25;2.00
76101;PMS7003;64830;46.910;6.354;2023-05-17T08:13:12;3.50;1.00;1.00
76101;PMS7003;64830;46.910;6.354;2023-05-17T08:15:37;2.75;2.75;2.00
76101;PMS7003;64830;46.910;6.354;2023-05-17T08:18:03;1.00;1.00;0.50
76101;PMS7003;64830;46.910;6.354;2023-05-17T08:20:28;2.00;1.00;1.00
76101;PMS7003;64830;46.910;6.354;2023-05-17T08:22:53;3.00;3.00;2.00
76101;PMS7003;64830;46.910;6.354;2023-05-17T08:25:19;2.50;2.50;2.25
76101;PMS7003;64830;46.910;6.354;2023-05-17T08:27:45;1.00;1.00;1.00
76101;PMS7003;64830;46.910;6.354;2023-05-17T08:30:10;1.00;1.00;1.00
76101;PMS7003;64830;46.910;6.354;2023-05-17T08:32:36;1.00;0.00;0.00
76101;PMS7003;64830;46.910;6.354;2023-05-17T08:35:02;3.00;1.25;1.00
76101;PMS7003;64830;46.910;6.354;2023-05-17T08:37:28;1.00;1.00;1.00
76101;PMS7003;64830;46.910;6.354;2023-05-17T08:39:53;2.75;2.00;2.00
76101;PMS7003;64830;46.910;6.354;2023-05-17T08:42:22;4.00;1.00;0.75
76101;PMS7003;64830;46.910;6.354;2023-05-17T08:44:52;1.00;1.00;1.00
76101;PMS7003;64830;46.910;6.354;2023-05-17T08:47:21;2.00;1.00;1.00
76101;PMS7003;64830;46.910;6.354;2023-05-17T08:49:50;1.00;1.00;1.00
76101;PMS7003;64830;46.910;6.354;2023-05-17T08:52:16;2.00;2.00;1.25
76101;PMS7003;64830;46.910;6.354;2023-05-17T08:54:42;2.75;2.75;2.25
76101;PMS7003;64830;46.910;6.354;2023-05-17T08:57:07;2.00;2.00;1.75
76101;PMS7003;64830;46.910;6.354;2023-05-17T08:59:35;1.00;1.00;0.50
76101;PMS7003;64830;46.910;6.354;2023-05-17T09:02:02;1.25;1.25;1.25
76101;PMS7003;64830;46.910;6.354;2023-05-17T09:04:29;3.00;2.00;1.25
76101;PMS7003;64830;46.910;6.354;2023-05-17T09:06:55;1.50;1.00;0.00
76101;PMS7003;64830;46.910;6.354;2023-05-17T09:09:20;4.00;2.75;2.50
76101;PMS7003;64830;46.910;6.354;2023-05-17T09:11:46;2.00;2.00;1.75
76101;PMS7003;64830;46.910;6.354;2023-05-17T09:14:13;1.75;1.75;1.25
76101;PMS7003;64830;46.910;6.354;2023-05-17T09:16:41;2.00;1.75;1.50
76101;PMS7003;64830;46.910;6.354;2023-05-17T09:19:07;1.25;1.25;1.25
76101;PMS7003;64830;46.910;6.354;2023-05-17T09:21:44;0.00;0.00;0.00
76101;PMS7003;64830;46.910;6.354;2023-05-17T09:24:12;2.00;2.00;1.75
76101;PMS7003;64830;46.910;6.354;2023-05-17T09:26:38;2.00;2.00;2.00
76101;PMS7003;64830;46.910;6.354;2023-05-17T09:29:08;2.00;2.00;2.00
76101;PMS7003;64830;46.910;6.354;2023-05-17T09:31:34;2.75;2.75;2.00
76101;PMS7003;64830;46.910;6.354;2023-05-17T09:34:00;3.00;2.00;1.00
76101;PMS7003;64830;46.910;6.354;2023-05-17T09:36:27;3.50;2.50;2.00
76101;PMS7003;64830;46.910;6.354;2023-05-17T09:38:57;4.00;4.00;3.00
76101;PMS7003;64830;46.910;6.354;2023-05-17T09:41:25;3.25;3.00;2.25
76101;PMS7003;64830;46.910;6.354;2023-05-17T09:44:01;3.00;3.00;2.50
76101;PMS7003;64830;46.910;6.354;2023-05-17T09:46:32;2.75;1.00;1.00
76101;PMS7003;64830;46.910;6.354;2023-05-17T09:49:02;2.00;2.00;1.50
76101;PMS7003;64830;46.910;6.354;2023-05-17T09:51:31;2.25;2.25;2.00
76101;PMS7003;64830;46.910;6.354;2023-05-17T09:53:58;2.00;2.00;1.00
76101;PMS7003;64830;46.910;6.354;2023-05-17T09:56:26;2.00;2.00;2.00
76101;PMS7003;64830;46.910;6.354;2023-05-17T09:58:52;2.75;2.75;2.00
76101;PMS7003;64830;46.910;6.354;2023-05-17T10:01:18;3.25;3.25;2.25
76101;PMS7003;64830;46.910;6.354;2023-05-17T10:03:44;4.25;3.00;3.00
76101;PMS7003;64830;46.910;6.354;2023-05-17T10:06:10;2.25;1.75;1.75
76101;PMS7003;64830;46.910;6.354;2023-05-17T10:08:39;3.25;3.25;2.75
76101;PMS7003;64830;46.910;6.354;2023-05-17T10:11:09;2.00;2.00;2.00
76101;PMS7003;64830;46.910;6.354;2023-05-17T10:13:36;3.00;3.00;3.00
76101;PMS7003;64830;46.910;6.354;2023-05-17T10:16:08;3.25;2.00;1.75
76101;PMS7003;64830;46.910;6.354;2023-05-17T10:18:36;3.00;2.25;2.00
76101;PMS7003;64830;46.910;6.354;2023-05-17T10:21:04;2.00;1.00;1.00
76101;PMS7003;64830;46.910;6.354;2023-05-17T10:23:31;0.75;0.75;0.75
76101;PMS7003;64830;46.910;6.354;2023-05-17T10:25:58;4.00;3.00;3.00
76101;PMS7003;64830;46.910;6.354;2023-05-17T10:28:24;1.75;0.00;0.00
76101;PMS7003;64830;46.910;6.354;2023-05-17T10:30:52;3.00;3.00;3.00
76101;PMS7003;64830;46.910;6.354;2023-05-17T10:33:19;3.50;3.50;3.00
76101;PMS7003;64830;46.910;6.354;2023-05-17T10:35:45;1.00;1.00;1.00
76101;PMS7003;64830;46.910;6.354;2023-05-17T10:38:12;3.50;3.00;3.00
76101;PMS7003;64830;46.910;6.354;2023-05-17T10:40:38;3.50;3.50;2.50
76101;PMS7003;64830;46.910;6.354;2023-05-17T10:43:06;3.00;3.00;2.00
76101;PMS7003;64830;46.910;6.354;2023-05-17T10:45:33;4.50;3.50;3.00
76101;PMS7003;64830;46.910;6.354;2023-05-17T10:48:03;0.00;0.00;0.00
76101;PMS7003;64830;46.910;6.354;2023-05-17T10:50:29;3.00;2.75;2.00
76101;PMS7003;64830;46.910;6.354;2023-05-17T10:52:56;1.75;1.25;1.25
76101;PMS7003;64830;46.910;6.354;2023-05-17T10:55:23;2.50;2.00;1.00
76101;PMS7003;64830;46.910;6.354;2023-05-17T10:58:18;5.75;3.25;3.00
76101;PMS7003;64830;46.910;6.354;2023-05-17T11:00:45;3.25;1.00;1.00
76101;PMS7003;64830;46.910;6.354;2023-05-17T11:03:12;3.00;3.00;2.50
76101;PMS7003;64830;46.910;6.354;2023-05-17T11:08:34;3.00;3.00;2.75
76101;PMS7003;64830;46.910;6.354;2023-05-17T11:11:06;3.00;0.50;0.00
76101;PMS7003;64830;46.910;6.354;2023-05-17T11:13:45;1.50;1.50;1.00
76101;PMS7003;64830;46.910;6.354;2023-05-17T11:16:41;3.25;2.00;2.00
76101;PMS7003;64830;46.910;6.354;2023-05-17T11:19:09;2.00;2.00;2.00
76101;PMS7003;64830;46.910;6.354;2023-05-17T11:21:43;3.00;3.00;3.00
76101;PMS7003;64830;46.910;6.354;2023-05-17T11:24:10;1.50;1.50;1.50
76101;PMS7003;64830;46.910;6.354;2023-05-17T11:26:40;1.00;1.00;1.00
76101;PMS7003;64830;46.910;6.354;2023-05-17T11:29:09;3.25;3.25;3.25
76101;PMS7003;64830;46.910;6.354;2023-05-17T11:31:35;1.75;1.75;1.50
76101;PMS7003;64830;46.910;6.354;2023-05-17T11:34:06;2.00;2.00;1.50
76101;PMS7003;64830;46.910;6.354;2023-05-17T11:36:47;2.00;2.00;1.75
76101;PMS7003;64830;46.910;6.354;2023-05-17T11:39:21;1.00;1.00;1.00
76101;PMS7003;64830;46.910;6.354;2023-05-17T11:41:53;2.50;2.50;2.00
76101;PMS7003;64830;46.910;6.354;2023-05-17T11:44:28;1.50;1.50;1.00
76101;PMS7003;64830;46.910;6.354;2023-05-17T11:47:02;1.50;1.00;0.75
76101;PMS7003;64830;46.910;6.354;2023-05-17T11:49:30;0.00;0.00;0.00
76101;PMS7003;64830;46.910;6.354;2023-05-17T11:51:57;2.00;2.00;2.00
76101;PMS7003;64830;46.910;6.354;2023-05-17T11:54:23;2.00;2.00;2.00
76101;PMS7003;64830;46.910;6.354;2023-05-17T11:56:50;1.25;1.25;1.00
76101;PMS7003;64830;46.910;6.354;2023-05-17T11:59:18;2.00;1.00;1.00
76101;PMS7003;64830;46.910;6.354;2023-05-17T12:01:47;2.50;2.50;2.50
76101;PMS7003;64830;46.910;6.354;2023-05-17T12:04:21;4.50;4.00;3.00
76101;PMS7003;64830;46.910;6.354;2023-05-17T12:06:51;3.00;3.00;3.00
76101;PMS7003;64830;46.910;6.354;2023-05-17T12:09:17;5.00;2.25;2.00
76101;PMS7003;64830;46.910;6.354;2023-05-17T12:11:42;1.75;1.75;1.00
76101;PMS7003;64830;46.910;6.354;2023-05-17T12:14:08;3.00;3.00;2.00
76101;PMS7003;64830;46.910;6.354;2023-05-17T12:16:35;2.00;2.00;1.50
76101;PMS7003;64830;46.910;6.354;2023-05-17T12:19:00;5.75;3.25;3.00
76101;PMS7003;64830;46.910;6.354;2023-05-17T12:21:26;2.00;2.00;1.00
76101;PMS7003;64830;46.910;6.354;2023-05-17T12:23:52;4.00;3.00;3.00
76101;PMS7003;64830;46.910;6.354;2023-05-17T12:31:21;3.00;2.67;2.00
76101;PMS7003;64830;46.910;6.354;2023-05-17T12:34:00;2.25;2.25;2.00
76101;PMS7003;64830;46.910;6.354;2023-05-17T12:36:28;3.00;2.00;1.00
76101;PMS7003;64830;46.910;6.354;2023-05-17T12:38:55;2.75;2.75;1.50
76101;PMS7003;64830;46.910;6.354;2023-05-17T12:41:21;1.00;1.00;1.00
76101;PMS7003;64830;46.910;6.354;2023-05-17T12:43:50;2.50;2.50;2.50
76101;PMS7003;64830;46.910;6.354;2023-05-17T12:46:16;3.75;3.25;3.00
76101;PMS7003;64830;46.910;6.354;2023-05-17T12:48:43;2.00;2.00;2.00
76101;PMS7003;64830;46.910;6.354;2023-05-17T12:51:13;3.00;3.00;2.00
76101;PMS7003;64830;46.910;6.354;2023-05-17T12:56:22;0.00;0.00;0.00
76101;PMS7003;64830;46.910;6.354;2023-05-17T12:59:05;2.00;2.00;2.00
76101;PMS7003;64830;46.910;6.354;2023-05-17T13:04:07;2.00;2.00;2.00
76101;PMS7003;64830;46.910;6.354;2023-05-17T13:06:49;4.00;3.25;3.00
76101;PMS7003;64830;46.910;6.354;2023-05-17T13:09:16;2.00;2.00;2.00
76101;PMS7003;64830;46.910;6.354;2023-05-17T13:11:43;2.25;2.25;2.00
76101;PMS7003;64830;46.910;6.354;2023-05-17T13:14:46;1.00;1.00;1.00
76101;PMS7003;64830;46.910;6.354;2023-05-17T13:17:25;2.75;2.00;2.00
76101;PMS7003;64830;46.910;6.354;2023-05-17T13:19:59;1.50;1.50;1.00
76101;PMS7003;64830;46.910;6.354;2023-05-17T13:22:25;2.75;2.75;2.00
76101;PMS7003;64830;46.910;6.354;2023-05-17T13:24:51;7.75;5.50;3.50
76101;PMS7003;64830;46.910;6.354;2023-05-17T13:27:16;3.75;2.50;2.00
76101;PMS7003;64830;46.910;6.354;2023-05-17T13:29:42;6.00;6.00;4.00
76101;PMS7003;64830;46.910;6.354;2023-05-17T13:32:09;2.25;2.25;2.25
76101;PMS7003;64830;46.910;6.354;2023-05-17T13:34:35;3.50;2.50;2.50
76101;PMS7003;64830;46.910;6.354;2023-05-17T13:37:01;6.00;5.50;4.00
76101;PMS7003;64830;46.910;6.354;2023-05-17T13:39:27;3.00;3.00;3.00
76101;PMS7003;64830;46.910;6.354;2023-05-17T13:41:52;1.00;1.00;1.00
76101;PMS7003;64830;46.910;6.354;2023-05-17T13:44:17;2.50;2.25;2.00
76101;PMS7003;64830;46.910;6.354;2023-05-17T13:46:43;4.00;4.00;3.00
76101;PMS7003;64830;46.910;6.354;2023-05-17T13:49:08;2.25;2.25;2.00
76101;PMS7003;64830;46.910;6.354;2023-05-17T13:51:34;3.00;3.00;2.75
76101;PMS7003;64830;46.910;6.354;2023-05-17T13:54:01;4.25;2.00;2.00
76101;PMS7003;64830;46.910;6.354;2023-05-17T13:56:27;4.00;4.00;3.00
76101;PMS7003;64830;46.910;6.354;2023-05-17T13:58:52;5.25;4.00;3.25
76101;PMS7003;64830;46.910;6.354;2023-05-17T14:01:17;1.00;1.00;0.25
76101;PMS7003;64830;46.910;6.354;2023-05-17T14:03:43;2.75;2.75;2.00
76101;PMS7003;64830;46.910;6.354;2023-05-17T14:06:09;3.00;3.00;3.00
76101;PMS7003;64830;46.910;6.354;2023-05-17T14:08:35;3.75;2.50;2.25
76101;PMS7003;64830;46.910;6.354;2023-05-17T14:11:00;6.00;5.00;4.00
76101;PMS7003;64830;46.910;6.354;2023-05-17T14:13:26;2.00;2.00;1.25
76101;PMS7003;64830;46.910;6.354;2023-05-17T14:15:52;2.00;0.25;0.00
76101;PMS7003;64830;46.910;6.354;2023-05-17T14:18:17;3.00;2.00;2.00
76101;PMS7003;64830;46.910;6.354;2023-05-17T14:20:43;4.00;3.00;3.00
76101;PMS7003;64830;46.910;6.354;2023-05-17T14:23:08;3.25;3.25;3.00
76101;PMS7003;64830;46.910;6.354;2023-05-17T14:25:33;3.00;3.00;2.00
76101;PMS7003;64830;46.910;6.354;2023-05-17T14:27:59;3.00;3.00;3.00
76101;PMS7003;64830;46.910;6.354;2023-05-17T14:30:24;2.25;2.25;2.00
76101;PMS7003;64830;46.910;6.354;2023-05-17T14:32:50;3.25;3.25;2.00
76101;PMS7003;64830;46.910;6.354;2023-05-17T14:35:15;3.75;3.00;3.00
76101;PMS7003;64830;46.910;6.354;2023-05-17T14:37:43;5.00;3.25;3.00
76101;PMS7003;64830;46.910;6.354;2023-05-17T14:40:09;3.00;3.00;2.00
76101;PMS7003;64830;46.910;6.354;2023-05-17T14:42:36;3.00;3.00;3.00
76101;PMS7003;64830;46.910;6.354;2023-05-17T14:45:02;7.25;4.00;3.25